createdAt,value
2018-05-15T00:00:47.486Z,1008.99
2018-05-15T00:01:47.487Z,1008.98
2018-05-15T00:02:47.485Z,1009.01
2018-05-15T00:03:47.479Z,1008.99
2018-05-15T00:04:47.479Z,1009.04
2018-05-15T00:05:47.476Z,1008.97
2018-05-15T00:06:47.473Z,1008.98
2018-05-15T00:07:47.470Z,1008.97
2018-05-15T00:08:47.468Z,1008.98
2018-05-15T00:09:47.468Z,1008.99
2018-05-15T00:10:47.470Z,1008.98
2018-05-15T00:11:47.461Z,1009.01
2018-05-15T00:12:47.460Z,1009.00
2018-05-15T00:13:47.461Z,1008.98
2018-05-15T00:14:47.455Z,1009.04
2018-05-15T00:15:47.453Z,1009.00
2018-05-15T00:16:47.450Z,1008.97
2018-05-15T00:17:47.448Z,1008.99
2018-05-15T00:18:47.445Z,1009.04
2018-05-15T00:19:47.444Z,1009.02
2018-05-15T00:20:47.441Z,1009.01
2018-05-15T00:21:47.440Z,1009.06
2018-05-15T00:22:47.436Z,1009.10
2018-05-15T00:23:47.434Z,1009.08
2018-05-15T00:24:47.432Z,1009.12
2018-05-15T00:25:47.429Z,1009.08
2018-05-15T00:26:47.426Z,1009.11
2018-05-15T00:27:47.423Z,1009.09
2018-05-15T00:28:47.421Z,1009.07
2018-05-15T00:29:47.418Z,1009.12
2018-05-15T00:30:47.416Z,1009.08
2018-05-15T00:31:47.416Z,1009.11
2018-05-15T00:32:47.411Z,1009.15
2018-05-15T00:33:47.408Z,1009.11
2018-05-15T00:34:47.406Z,1009.17
2018-05-15T00:35:47.404Z,1009.13
2018-05-15T00:36:47.401Z,1009.10
2018-05-15T00:37:47.399Z,1009.12
2018-05-15T00:38:47.395Z,1009.15
2018-05-15T00:39:47.393Z,1009.18
2018-05-15T00:40:47.390Z,1009.15
2018-05-15T00:41:47.396Z,1009.18
2018-05-15T00:42:47.384Z,1009.16
2018-05-15T00:43:47.382Z,1009.16
2018-05-15T00:44:47.379Z,1009.22
2018-05-15T00:45:47.377Z,1009.16
2018-05-15T00:46:47.373Z,1009.18
2018-05-15T00:47:47.371Z,1009.16
2018-05-15T00:48:47.368Z,1009.17
2018-05-15T00:49:47.370Z,1009.16
2018-05-15T00:50:47.366Z,1009.20
2018-05-15T00:51:47.364Z,1009.19
2018-05-15T00:52:47.364Z,1009.17
2018-05-15T00:53:47.354Z,1009.12
2018-05-15T00:54:47.350Z,1009.11
2018-05-15T00:55:47.349Z,1009.14
2018-05-15T00:56:47.345Z,1009.15
2018-05-15T00:57:47.349Z,1009.13
2018-05-15T00:58:47.344Z,1009.15
2018-05-15T00:59:47.343Z,1009.17
2018-05-15T01:00:47.338Z,1009.12
2018-05-15T01:01:47.332Z,1009.17
2018-05-15T01:02:47.329Z,1009.16
2018-05-15T01:03:47.332Z,1009.13
2018-05-15T01:04:47.327Z,1009.15
2018-05-15T01:05:47.320Z,1009.16
2018-05-15T01:06:47.319Z,1009.21
2018-05-15T01:07:47.313Z,1009.23
2018-05-15T01:08:47.315Z,1009.26
2018-05-15T01:09:47.313Z,1009.17
2018-05-15T01:10:47.308Z,1009.22
2018-05-15T01:11:47.306Z,1009.21
2018-05-15T01:12:47.303Z,1009.21
2018-05-15T01:13:47.300Z,1009.18
2018-05-15T01:14:47.292Z,1009.20
2018-05-15T01:15:47.293Z,1009.19
2018-05-15T01:16:47.287Z,1009.19
2018-05-15T01:17:47.290Z,1009.21
2018-05-15T01:18:47.286Z,1009.13
2018-05-15T01:19:47.278Z,1009.18
2018-05-15T01:20:47.279Z,1009.15
2018-05-15T01:21:47.278Z,1009.17
2018-05-15T01:22:47.273Z,1009.17
2018-05-15T01:23:47.269Z,1009.18
2018-05-15T01:24:47.267Z,1009.23
2018-05-15T01:25:47.261Z,1009.21
2018-05-15T01:26:47.256Z,1009.21
2018-05-15T01:27:47.253Z,1009.23
2018-05-15T01:28:47.250Z,1009.17
2018-05-15T01:29:47.254Z,1009.15
2018-05-15T01:30:47.248Z,1009.14
2018-05-15T01:31:47.246Z,1009.15
2018-05-15T01:32:47.244Z,1009.17
2018-05-15T01:33:47.236Z,1009.18
2018-05-15T01:34:47.230Z,1009.16
2018-05-15T01:35:47.234Z,1009.16
2018-05-15T01:36:47.229Z,1009.14
2018-05-15T01:37:47.222Z,1009.17
2018-05-15T01:38:47.218Z,1009.10
2018-05-15T01:39:47.215Z,1009.17
2018-05-15T01:40:47.212Z,1009.17
2018-05-15T01:41:47.215Z,1009.16
2018-05-15T01:42:47.214Z,1009.17
2018-05-15T01:43:47.208Z,1009.13
2018-05-15T01:44:47.204Z,1009.09
2018-05-15T01:45:47.196Z,1009.12
2018-05-15T01:46:47.194Z,1009.18
2018-05-15T01:47:47.190Z,1009.14
2018-05-15T01:48:47.186Z,1009.13
2018-05-15T01:49:47.188Z,1009.14
2018-05-15T01:50:47.185Z,1009.15
2018-05-15T01:51:47.177Z,1009.16
2018-05-15T01:52:47.174Z,1009.21
2018-05-15T01:53:47.221Z,1009.15
2018-05-15T01:54:47.171Z,1009.14
2018-05-15T01:55:47.170Z,1009.16
2018-05-15T01:56:47.163Z,1009.14
2018-05-15T01:57:47.156Z,1009.17
2018-05-15T01:58:47.152Z,1009.19
2018-05-15T01:59:47.148Z,1009.14
2018-05-15T02:00:47.145Z,1009.22
2018-05-15T02:01:47.146Z,1009.19
2018-05-15T02:02:47.142Z,1009.18
2018-05-15T02:03:47.140Z,1009.16
2018-05-15T02:04:47.137Z,1009.18
2018-05-15T02:05:47.128Z,1009.18
2018-05-15T02:06:47.125Z,1009.23
2018-05-15T02:07:47.127Z,1009.28
2018-05-15T02:08:47.124Z,1009.30
2018-05-15T02:09:47.114Z,1009.24
2018-05-15T02:10:47.111Z,1009.27
2018-05-15T02:11:47.107Z,1009.23
2018-05-15T02:12:47.104Z,1009.23
2018-05-15T02:13:47.105Z,1009.23
2018-05-15T02:14:47.101Z,1009.18
2018-05-15T02:15:47.099Z,1009.19
2018-05-15T02:16:47.094Z,1009.18
2018-05-15T02:17:47.087Z,1009.21
2018-05-15T02:18:47.082Z,1009.21
2018-05-15T02:19:47.084Z,1009.21
2018-05-15T02:20:47.077Z,1009.22
2018-05-15T02:21:47.081Z,1009.25
2018-05-15T02:22:47.073Z,1009.24
2018-05-15T02:23:47.065Z,1009.25
2018-05-15T02:24:47.062Z,1009.25
2018-05-15T02:25:47.063Z,1009.22
2018-05-15T02:26:47.059Z,1009.25
2018-05-15T02:27:47.057Z,1009.23
2018-05-15T02:28:47.052Z,1009.26
2018-05-15T02:29:47.045Z,1009.27
2018-05-15T02:30:47.041Z,1009.25
2018-05-15T02:31:47.037Z,1009.27
2018-05-15T02:32:47.035Z,1009.30
2018-05-15T02:33:47.035Z,1009.28
2018-05-15T02:34:47.031Z,1009.25
2018-05-15T02:35:47.031Z,1009.24
2018-05-15T02:36:47.029Z,1009.22
2018-05-15T02:37:47.016Z,1009.23
2018-05-15T02:38:47.019Z,1009.25
2018-05-15T02:39:47.018Z,1009.22
2018-05-15T02:40:47.011Z,1009.23
2018-05-15T02:41:47.003Z,1009.26
2018-05-15T02:42:46.997Z,1009.28
2018-05-15T02:43:46.994Z,1009.26
2018-05-15T02:44:46.990Z,1009.32
2018-05-15T02:45:46.997Z,1009.32
2018-05-15T02:46:46.987Z,1009.35
2018-05-15T02:47:46.985Z,1009.38
2018-05-15T02:48:46.981Z,1009.37
2018-05-15T02:49:46.985Z,1009.38
2018-05-15T02:50:46.969Z,1009.36
2018-05-15T02:51:46.965Z,1009.38
2018-05-15T02:52:46.961Z,1009.33
2018-05-15T02:53:46.964Z,1009.35
2018-05-15T02:54:46.959Z,1009.32
2018-05-15T02:55:46.953Z,1009.35
2018-05-15T02:56:46.947Z,1009.35
2018-05-15T02:57:46.944Z,1009.36
2018-05-15T02:58:46.947Z,1009.36
2018-05-15T02:59:46.942Z,1009.35
2018-05-15T03:00:46.936Z,1009.35
2018-05-15T03:01:46.929Z,1009.28
2018-05-15T03:02:46.924Z,1009.29
2018-05-15T03:03:46.920Z,1009.29
2018-05-15T03:04:46.918Z,1009.31
2018-05-15T03:05:46.919Z,1009.26
2018-05-15T03:06:46.914Z,1009.32
2018-05-15T03:07:46.909Z,1009.23
2018-05-15T03:08:46.907Z,1009.27
2018-05-15T03:09:46.898Z,1009.25
2018-05-15T03:10:46.893Z,1009.25
2018-05-15T03:11:46.967Z,1009.35
2018-05-15T03:12:46.890Z,1009.29
2018-05-15T03:13:46.882Z,1009.32
2018-05-15T03:14:46.878Z,1009.30
2018-05-15T03:15:46.875Z,1009.32
2018-05-15T03:16:46.871Z,1009.37
2018-05-15T03:17:46.873Z,1009.37
2018-05-15T03:18:46.867Z,1009.38
2018-05-15T03:19:46.865Z,1009.40
2018-05-15T03:20:46.862Z,1009.37
2018-05-15T03:21:46.853Z,1009.37
2018-05-15T03:22:46.849Z,1009.40
2018-05-15T03:23:46.844Z,1009.43
2018-05-15T03:24:46.840Z,1009.42
2018-05-15T03:25:46.842Z,1009.49
2018-05-15T03:26:46.836Z,1009.45
2018-05-15T03:27:46.829Z,1009.48
2018-05-15T03:28:46.825Z,1009.48
2018-05-15T03:29:46.825Z,1009.50
2018-05-15T03:30:46.821Z,1009.53
2018-05-15T03:31:46.819Z,1009.51
2018-05-15T03:32:46.814Z,1009.46
2018-05-15T03:33:46.805Z,1009.50
2018-05-15T03:34:46.805Z,1009.51
2018-05-15T03:35:46.798Z,1009.54
2018-05-15T03:36:46.794Z,1009.53
2018-05-15T03:37:46.794Z,1009.54
2018-05-15T03:38:46.790Z,1009.56
2018-05-15T03:39:46.786Z,1009.50
2018-05-15T03:40:46.781Z,1009.58
2018-05-15T03:41:46.774Z,1009.60
2018-05-15T03:42:46.769Z,1009.59
2018-05-15T03:43:46.769Z,1009.60
2018-05-15T03:44:46.765Z,1009.63
2018-05-15T03:45:46.757Z,1009.56
2018-05-15T03:46:46.754Z,1009.60
2018-05-15T03:47:46.748Z,1009.61
2018-05-15T03:48:46.745Z,1009.64
2018-05-15T03:49:46.747Z,1009.65
2018-05-15T03:50:46.741Z,1009.68
2018-05-15T03:51:46.738Z,1009.67
2018-05-15T03:52:46.735Z,1009.69
2018-05-15T03:53:46.725Z,1009.75
2018-05-15T03:54:46.721Z,1009.71
2018-05-15T03:55:46.719Z,1009.70
2018-05-15T03:56:46.712Z,1009.68
2018-05-15T03:57:46.718Z,1009.68
2018-05-15T03:58:46.707Z,1009.74
2018-05-15T03:59:46.700Z,1009.74
2018-05-15T04:00:46.696Z,1009.74
2018-05-15T04:01:46.697Z,1009.72
2018-05-15T04:02:46.691Z,1009.73
2018-05-15T04:03:46.696Z,1009.75
2018-05-15T04:04:46.684Z,1009.78
2018-05-15T04:05:46.675Z,1009.75
2018-05-15T04:06:46.672Z,1009.81
2018-05-15T04:07:46.666Z,1009.74
2018-05-15T04:08:46.684Z,1009.74
2018-05-15T04:09:46.663Z,1009.79
2018-05-15T04:10:46.730Z,1009.76
2018-05-15T04:11:46.657Z,1009.76
2018-05-15T04:12:46.652Z,1009.76
2018-05-15T04:13:46.643Z,1009.82
2018-05-15T04:14:46.639Z,1009.78
2018-05-15T04:15:46.640Z,1009.78
2018-05-15T04:16:46.636Z,1009.75
2018-05-15T04:17:46.627Z,1009.79
2018-05-15T04:18:46.622Z,1009.81
2018-05-15T04:19:46.620Z,1009.78
2018-05-15T04:20:46.614Z,1009.78
2018-05-15T04:21:46.614Z,1009.81
2018-05-15T04:22:46.613Z,1009.79
2018-05-15T04:23:46.611Z,1009.80
2018-05-15T04:24:46.602Z,1009.79
2018-05-15T04:25:46.594Z,1009.83
2018-05-15T04:26:46.593Z,1009.80
2018-05-15T04:27:46.586Z,1009.81
2018-05-15T04:28:46.582Z,1009.81
2018-05-15T04:29:46.584Z,1009.82
2018-05-15T04:30:46.578Z,1009.78
2018-05-15T04:31:46.570Z,1009.88
2018-05-15T04:32:46.569Z,1009.82
2018-05-15T04:33:46.570Z,1009.89
2018-05-15T04:34:46.562Z,1009.89
2018-05-15T04:35:46.557Z,1009.89
2018-05-15T04:36:46.555Z,1009.89
2018-05-15T04:37:46.547Z,1009.85
2018-05-15T04:38:46.541Z,1009.86
2018-05-15T04:39:46.539Z,1009.93
2018-05-15T04:40:46.537Z,1009.98
2018-05-15T04:41:46.535Z,1009.95
2018-05-15T04:42:46.532Z,1010.02
2018-05-15T04:43:46.617Z,1010.07
2018-05-15T04:44:46.525Z,1010.11
2018-05-15T04:45:46.518Z,1010.23
2018-05-15T04:46:46.514Z,1010.28
2018-05-15T04:47:46.516Z,1010.37
2018-05-15T04:48:46.512Z,1010.40
2018-05-15T04:49:46.505Z,1010.46
2018-05-15T04:50:46.505Z,1010.56
2018-05-15T04:51:46.499Z,1010.57
2018-05-15T04:52:46.497Z,1010.61
2018-05-15T04:53:46.503Z,1010.58
2018-05-15T04:54:46.498Z,1010.65
2018-05-15T04:55:46.579Z,1010.71
2018-05-15T04:56:46.496Z,1010.76
2018-05-15T04:57:46.490Z,1010.73
2018-05-15T04:58:46.493Z,1010.79
2018-05-15T04:59:46.488Z,1010.83
2018-05-15T05:00:46.488Z,1010.86
2018-05-15T05:01:46.493Z,1010.88
2018-05-15T05:02:46.492Z,1010.85
2018-05-15T05:03:46.487Z,1010.94
2018-05-15T05:04:46.486Z,1010.92
2018-05-15T05:05:46.493Z,1010.96
2018-05-15T05:06:46.495Z,1011.01
2018-05-15T05:07:46.495Z,1011.04
2018-05-15T05:08:46.495Z,1011.07
2018-05-15T05:09:46.490Z,1011.08
2018-05-15T05:10:46.491Z,1011.10
2018-05-15T05:11:46.525Z,1011.11
2018-05-15T05:12:46.496Z,1011.19
2018-05-15T05:13:46.502Z,1011.22
2018-05-15T05:14:46.505Z,1011.23
2018-05-15T05:15:46.504Z,1011.23
2018-05-15T05:16:46.507Z,1011.30
2018-05-15T05:17:46.505Z,1011.32
2018-05-15T05:18:46.507Z,1011.35
2018-05-15T05:19:46.513Z,1011.37
2018-05-15T05:20:46.517Z,1011.40
2018-05-15T05:21:46.516Z,1011.48
2018-05-15T05:22:46.524Z,1011.46
2018-05-15T05:23:46.522Z,1011.49
2018-05-15T05:24:46.527Z,1011.48
2018-05-15T05:25:46.535Z,1011.49
2018-05-15T05:26:46.536Z,1011.51
2018-05-15T05:27:46.543Z,1011.58
2018-05-15T05:28:46.545Z,1011.54
2018-05-15T05:29:46.545Z,1011.58
2018-05-15T05:30:46.547Z,1011.63
2018-05-15T05:31:46.552Z,1011.59
2018-05-15T05:32:46.557Z,1011.65
2018-05-15T05:33:46.568Z,1011.75
2018-05-15T05:34:46.570Z,1011.73
2018-05-15T05:35:46.572Z,1011.72
2018-05-15T05:36:46.575Z,1011.76
2018-05-15T05:37:46.584Z,1011.81
2018-05-15T05:38:46.590Z,1011.83
2018-05-15T05:39:46.595Z,1011.89
2018-05-15T05:40:46.599Z,1011.85
2018-05-15T05:41:46.601Z,1011.91
2018-05-15T05:42:46.605Z,1011.89
2018-05-15T05:43:46.610Z,1011.92
2018-05-15T05:44:46.616Z,1011.96
2018-05-15T05:45:46.627Z,1012.00
2018-05-15T05:46:46.632Z,1012.06
2018-05-15T05:47:46.636Z,1012.14
2018-05-15T05:48:46.642Z,1012.12
2018-05-15T05:49:46.644Z,1012.14
2018-05-15T05:50:46.648Z,1012.11
2018-05-15T05:51:46.660Z,1012.16
2018-05-15T05:52:46.665Z,1012.20
2018-05-15T05:53:46.667Z,1012.17
2018-05-15T05:54:46.677Z,1012.25
2018-05-15T05:55:46.679Z,1012.28
2018-05-15T05:56:46.685Z,1012.25
2018-05-15T05:57:46.696Z,1012.23
2018-05-15T05:58:46.703Z,1012.24
2018-05-15T05:59:46.709Z,1012.25
2018-05-15T06:00:46.717Z,1012.31
2018-05-15T06:01:46.720Z,1012.32
2018-05-15T06:02:46.724Z,1012.31
2018-05-15T06:03:46.731Z,1012.30
2018-05-15T06:04:46.738Z,1012.30
2018-05-15T06:05:46.753Z,1012.30
2018-05-15T06:06:46.756Z,1012.36
2018-05-15T06:07:46.759Z,1012.35
2018-05-15T06:08:46.767Z,1012.43
2018-05-15T06:09:46.778Z,1012.43
2018-05-15T06:10:46.785Z,1012.41
2018-05-15T06:11:46.795Z,1012.47
2018-05-15T06:12:46.800Z,1012.53
2018-05-15T06:13:46.804Z,1012.53
2018-05-15T06:14:46.811Z,1012.49
2018-05-15T06:15:46.820Z,1012.55
2018-05-15T06:16:46.826Z,1012.52
2018-05-15T06:17:46.838Z,1012.54
2018-05-15T06:18:46.846Z,1012.56
2018-05-15T06:19:46.856Z,1012.54
2018-05-15T06:20:46.970Z,1012.53
2018-05-15T06:21:46.867Z,1012.59
2018-05-15T06:22:46.878Z,1012.62
2018-05-15T06:23:46.887Z,1012.60
2018-05-15T06:24:46.896Z,1012.57
2018-05-15T06:25:46.903Z,1012.57
2018-05-15T06:26:46.907Z,1012.57
2018-05-15T06:27:46.916Z,1012.64
2018-05-15T06:28:46.925Z,1012.62
2018-05-15T06:29:46.943Z,1012.64
2018-05-15T06:30:46.946Z,1012.64
2018-05-15T06:31:46.954Z,1012.65
2018-05-15T06:32:46.964Z,1012.67
2018-05-15T06:33:46.972Z,1012.66
2018-05-15T06:34:46.977Z,1012.71
2018-05-15T06:35:46.986Z,1012.73
2018-05-15T06:36:46.996Z,1012.68
2018-05-15T06:37:47.011Z,1012.69
2018-05-15T06:38:47.020Z,1012.77
2018-05-15T06:39:47.025Z,1012.77
2018-05-15T06:40:47.035Z,1012.75
2018-05-15T06:41:47.050Z,1012.80
2018-05-15T06:42:47.059Z,1012.81
2018-05-15T06:43:47.068Z,1012.84
2018-05-15T06:44:47.164Z,1012.79
2018-05-15T06:45:47.084Z,1012.80
2018-05-15T06:46:47.097Z,1012.84
2018-05-15T06:47:47.103Z,1012.87
2018-05-15T06:48:47.115Z,1012.85
2018-05-15T06:49:47.128Z,1012.86
2018-05-15T06:50:47.138Z,1012.89
2018-05-15T06:51:47.149Z,1012.90
2018-05-15T06:52:47.161Z,1012.89
2018-05-15T06:53:47.166Z,1012.91
2018-05-15T06:54:47.176Z,1012.92
2018-05-15T06:55:47.192Z,1012.90
2018-05-15T06:56:47.202Z,1012.96
2018-05-15T06:57:47.209Z,1013.03
2018-05-15T06:58:47.219Z,1012.95
2018-05-15T06:59:47.280Z,1012.99
2018-05-15T07:00:47.241Z,1013.01
2018-05-15T07:01:47.268Z,1013.00
2018-05-15T07:02:47.266Z,1013.03
2018-05-15T07:03:47.277Z,1013.00
2018-05-15T07:04:47.290Z,1013.02
2018-05-15T07:05:47.296Z,1012.97
2018-05-15T07:06:47.307Z,1012.17
2018-05-15T07:07:47.408Z,1012.11
2018-05-15T07:08:47.328Z,1012.07
2018-05-15T07:09:47.351Z,1012.18
2018-05-15T07:10:47.356Z,1012.20
2018-05-15T07:11:47.363Z,1012.17
2018-05-15T07:12:47.374Z,1012.19
2018-05-15T07:13:47.392Z,1012.22
2018-05-15T07:14:47.402Z,1012.24
2018-05-15T07:15:47.413Z,1012.26
2018-05-15T07:16:47.424Z,1012.28
2018-05-15T07:17:47.431Z,1012.40
2018-05-15T07:18:47.441Z,1012.42
2018-05-15T07:19:47.453Z,1012.48
2018-05-15T07:20:47.466Z,1012.51
2018-05-15T07:21:47.483Z,1012.57
2018-05-15T07:22:47.494Z,1012.52
2018-05-15T07:23:47.507Z,1012.59
2018-05-15T07:24:47.516Z,1012.55
2018-05-15T07:25:47.525Z,1012.59
2018-05-15T07:26:47.535Z,1012.55
2018-05-15T07:27:47.552Z,1012.52
2018-05-15T07:28:47.564Z,1012.59
2018-05-15T07:29:47.572Z,1012.48
2018-05-15T07:30:47.584Z,1012.38
2018-05-15T07:31:47.597Z,1012.32
2018-05-15T07:32:47.610Z,1012.34
2018-05-15T07:33:47.627Z,1012.31
2018-05-15T07:34:47.645Z,1012.32
2018-05-15T07:35:47.653Z,1012.28
2018-05-15T07:36:47.663Z,1012.33
2018-05-15T07:37:47.671Z,1012.37
2018-05-15T07:38:47.683Z,1012.37
2018-05-15T07:39:47.698Z,1012.36
2018-05-15T07:40:47.709Z,1012.36
2018-05-15T07:41:47.726Z,1012.41
2018-05-15T07:42:47.739Z,1012.45
2018-05-15T07:43:47.746Z,1012.38
2018-05-15T07:44:47.760Z,1012.37
2018-05-15T07:45:47.779Z,1012.38
2018-05-15T07:46:47.789Z,1012.43
2018-05-15T07:47:47.805Z,1012.43
2018-05-15T07:48:47.822Z,1012.40
2018-05-15T07:49:47.825Z,1012.41
2018-05-15T07:50:47.837Z,1012.42
2018-05-15T07:51:47.852Z,1012.40
2018-05-15T07:52:47.866Z,1012.46
2018-05-15T07:53:47.884Z,1012.46
2018-05-15T07:54:47.897Z,1012.42
2018-05-15T07:55:47.910Z,1012.45
2018-05-15T07:56:47.924Z,1012.42
2018-05-15T07:57:47.934Z,1012.42
2018-05-15T07:58:47.948Z,1012.35
2018-05-15T07:59:47.969Z,1012.41
2018-05-15T08:00:47.981Z,1012.38
2018-05-15T08:01:47.991Z,1012.46
2018-05-15T08:02:48.004Z,1012.45
2018-05-15T08:03:48.020Z,1012.45
2018-05-15T08:04:48.034Z,1012.50
2018-05-15T08:05:48.055Z,1012.46
2018-05-15T08:06:48.067Z,1012.50
2018-05-15T08:07:48.083Z,1012.56
2018-05-15T08:08:48.099Z,1012.54
2018-05-15T08:09:48.109Z,1012.53
2018-05-15T08:10:48.123Z,1012.55
2018-05-15T08:11:48.139Z,1012.59
2018-05-15T08:12:48.154Z,1012.64
2018-05-15T08:13:48.173Z,1012.61
2018-05-15T08:14:48.188Z,1012.61
2018-05-15T08:15:48.202Z,1012.64
2018-05-15T08:16:48.216Z,1012.72
2018-05-15T08:17:48.237Z,1012.72
2018-05-15T08:18:48.251Z,1012.81
2018-05-15T08:19:48.267Z,1012.83
2018-05-15T08:20:48.280Z,1012.95
2018-05-15T08:21:48.292Z,1012.94
2018-05-15T08:22:48.307Z,1012.99
2018-05-15T08:23:48.322Z,1013.08
2018-05-15T08:24:48.338Z,1013.21
2018-05-15T08:25:48.358Z,1013.29
2018-05-15T08:26:48.375Z,1013.33
2018-05-15T08:27:48.390Z,1013.38
2018-05-15T08:28:48.412Z,1013.46
2018-05-15T08:29:48.419Z,1013.46
2018-05-15T08:30:48.506Z,1013.57
2018-05-15T08:31:48.455Z,1013.75
2018-05-15T08:32:48.473Z,1013.65
2018-05-15T08:33:48.484Z,1013.70
2018-05-15T08:34:48.500Z,1013.81
2018-05-15T08:35:48.517Z,1013.83
2018-05-15T08:36:48.534Z,1013.86
2018-05-15T08:37:48.560Z,1013.85
2018-05-15T08:38:48.572Z,1013.87
2018-05-15T08:39:48.589Z,1013.88
2018-05-15T08:40:48.606Z,1013.79
2018-05-15T08:41:48.619Z,1014.03
2018-05-15T08:42:48.640Z,1013.99
2018-05-15T08:43:48.654Z,1014.02
2018-05-15T08:44:48.671Z,1013.79
2018-05-15T08:45:48.693Z,1013.80
2018-05-15T08:46:48.710Z,1013.50
2018-05-15T08:47:48.722Z,1013.43
2018-05-15T08:48:48.739Z,1013.30
2018-05-15T08:49:48.762Z,1013.16
2018-05-15T08:50:48.781Z,1013.15
2018-05-15T08:51:48.796Z,1013.15
2018-05-15T08:52:48.812Z,1013.08
2018-05-15T08:53:48.826Z,1013.11
2018-05-15T08:54:48.842Z,1013.15
2018-05-15T08:55:48.861Z,1013.16
2018-05-15T08:56:48.881Z,1013.22
2018-05-15T08:57:48.906Z,1013.02
2018-05-15T08:58:48.924Z,1013.07
2018-05-15T08:59:48.937Z,1013.17
2018-05-15T09:00:48.958Z,1013.15
2018-05-15T09:01:48.967Z,1013.08
2018-05-15T09:02:48.984Z,1012.83
2018-05-15T09:03:49.008Z,1012.51
2018-05-15T09:04:49.029Z,1012.37
2018-05-15T09:05:49.042Z,1012.37
2018-05-15T09:06:49.056Z,1012.36
2018-05-15T09:07:49.073Z,1012.35
2018-05-15T09:08:49.092Z,1012.35
2018-05-15T09:09:49.116Z,1012.45
2018-05-15T09:10:49.134Z,1012.28
2018-05-15T09:11:49.150Z,1012.30
2018-05-15T09:12:49.179Z,1012.27
2018-05-15T09:13:49.182Z,1012.23
2018-05-15T09:14:49.199Z,1012.22
2018-05-15T09:15:49.218Z,1012.22
2018-05-15T09:16:49.237Z,1012.17
2018-05-15T09:17:49.259Z,1012.29
2018-05-15T09:18:49.277Z,1012.28
2018-05-15T09:19:49.288Z,1012.17
2018-05-15T09:20:49.307Z,1012.16
2018-05-15T09:21:49.330Z,1012.13
2018-05-15T09:22:49.347Z,1012.28
2018-05-15T09:23:49.365Z,1012.08
2018-05-15T09:24:49.380Z,1012.14
2018-05-15T09:25:49.393Z,1012.10
2018-05-15T09:26:49.410Z,1012.04
2018-05-15T09:27:49.426Z,1012.08
2018-05-15T09:28:49.444Z,1012.06
2018-05-15T09:29:49.466Z,1012.22
2018-05-15T09:30:49.482Z,1012.16
2018-05-15T09:31:49.498Z,1012.14
2018-05-15T09:32:49.515Z,1012.12
2018-05-15T09:33:49.527Z,1012.13
2018-05-15T09:34:49.543Z,1012.22
2018-05-15T09:35:49.565Z,1012.16
2018-05-15T09:36:49.581Z,1012.12
2018-05-15T09:37:49.595Z,1012.14
2018-05-15T09:38:49.611Z,1012.16
2018-05-15T09:39:49.632Z,1012.16
2018-05-15T09:40:49.645Z,1012.11
2018-05-15T09:41:49.667Z,1012.20
2018-05-15T09:42:49.683Z,1012.16
2018-05-15T09:43:49.701Z,1012.23
2018-05-15T09:44:49.717Z,1012.27
2018-05-15T09:45:49.729Z,1012.21
2018-05-15T09:46:49.788Z,1012.19
2018-05-15T09:47:49.763Z,1012.21
2018-05-15T09:48:49.780Z,1012.18
2018-05-15T09:49:49.802Z,1012.14
2018-05-15T09:50:49.819Z,1012.10
2018-05-15T09:51:49.833Z,1012.08
2018-05-15T09:52:49.851Z,1012.14
2018-05-15T09:53:49.872Z,1012.06
2018-05-15T09:54:49.889Z,1012.09
2018-05-15T09:55:49.907Z,1012.10
2018-05-15T09:56:49.924Z,1012.06
2018-05-15T09:57:49.937Z,1012.11
2018-05-15T09:58:49.954Z,1012.08
2018-05-15T09:59:49.972Z,1012.07
2018-05-15T10:00:49.991Z,1012.06
2018-05-15T10:01:50.012Z,1012.09
2018-05-15T10:02:50.080Z,1012.09
2018-05-15T10:03:50.050Z,1012.01
2018-05-15T10:04:50.063Z,1012.12
2018-05-15T10:05:50.077Z,1012.05
2018-05-15T10:06:50.094Z,1012.03
2018-05-15T10:07:50.174Z,1012.03
2018-05-15T10:08:50.135Z,1012.06
2018-05-15T10:09:50.146Z,1012.08
2018-05-15T10:10:50.163Z,1011.99
2018-05-15T10:11:50.184Z,1012.12
2018-05-15T10:12:50.198Z,1012.08
2018-05-15T10:13:50.222Z,1012.07
2018-05-15T10:14:50.239Z,1012.13
2018-05-15T10:15:50.254Z,1012.11
2018-05-15T10:16:50.274Z,1012.06
2018-05-15T10:17:50.285Z,1012.13
2018-05-15T10:18:50.302Z,1012.10
2018-05-15T10:19:50.397Z,1011.97
2018-05-15T10:20:50.337Z,1011.94
2018-05-15T10:21:50.357Z,1011.91
2018-05-15T10:22:50.373Z,1011.97
2018-05-15T10:23:50.386Z,1011.95
2018-05-15T10:24:50.403Z,1011.94
2018-05-15T10:25:50.423Z,1011.91
2018-05-15T10:26:50.439Z,1011.98
2018-05-15T10:27:50.457Z,1011.98
2018-05-15T10:28:50.473Z,1012.04
2018-05-15T10:29:50.498Z,1011.94
2018-05-15T10:30:50.506Z,1011.91
2018-05-15T10:31:50.518Z,1011.98
2018-05-15T10:32:50.533Z,1011.84
2018-05-15T10:33:50.554Z,1011.92
2018-05-15T10:34:50.568Z,1011.98
2018-05-15T10:35:50.589Z,1011.87
2018-05-15T10:36:50.600Z,1011.88
2018-05-15T10:37:50.612Z,1011.81
2018-05-15T10:38:50.626Z,1011.85
2018-05-15T10:39:50.648Z,1011.78
2018-05-15T10:40:50.667Z,1011.82
2018-05-15T10:41:50.674Z,1011.81
2018-05-15T10:42:50.688Z,1011.80
2018-05-15T10:43:50.761Z,1011.85
2018-05-15T10:44:50.721Z,1011.86
2018-05-15T10:45:50.740Z,1011.82
2018-05-15T10:46:50.754Z,1011.84
2018-05-15T10:47:50.770Z,1011.80
2018-05-15T10:48:50.786Z,1011.80
2018-05-15T10:49:50.796Z,1011.81
2018-05-15T10:50:50.838Z,1011.78
2018-05-15T10:51:50.826Z,1011.78
2018-05-15T10:52:50.841Z,1011.72
2018-05-15T10:53:50.861Z,1011.75
2018-05-15T10:54:50.875Z,1011.85
2018-05-15T10:55:50.886Z,1011.85
2018-05-15T10:56:50.903Z,1011.84
2018-05-15T10:57:50.921Z,1011.75
2018-05-15T10:58:50.935Z,1011.72
2018-05-15T10:59:50.952Z,1011.84
2018-05-15T11:00:50.966Z,1011.63
2018-05-15T11:01:50.976Z,1011.69
2018-05-15T11:02:50.990Z,1011.67
2018-05-15T11:03:51.005Z,1011.80
2018-05-15T11:04:51.020Z,1011.82
2018-05-15T11:05:51.044Z,1011.71
2018-05-15T11:06:51.053Z,1011.66
2018-05-15T11:07:51.068Z,1011.61
2018-05-15T11:08:51.082Z,1011.62
2018-05-15T11:09:51.093Z,1011.66
2018-05-15T11:10:51.106Z,1011.61
2018-05-15T11:11:51.125Z,1011.61
2018-05-15T11:12:51.250Z,1011.66
2018-05-15T11:13:51.150Z,1011.71
2018-05-15T11:14:51.162Z,1011.61
2018-05-15T11:15:51.178Z,1011.49
2018-05-15T11:16:51.191Z,1011.47
2018-05-15T11:17:51.210Z,1011.47
2018-05-15T11:18:51.222Z,1011.42
2018-05-15T11:19:51.237Z,1011.41
2018-05-15T11:20:51.252Z,1011.33
2018-05-15T11:21:51.261Z,1011.43
2018-05-15T11:22:51.268Z,1011.39
2018-05-15T11:23:51.286Z,1011.36
2018-05-15T11:24:51.292Z,1011.38
2018-05-15T11:25:51.311Z,1011.43
2018-05-15T11:26:51.319Z,1011.35
2018-05-15T11:27:51.327Z,1011.35
2018-05-15T11:28:51.341Z,1011.30
2018-05-15T11:29:51.352Z,1011.32
2018-05-15T11:30:51.361Z,1011.29
2018-05-15T11:31:51.377Z,1011.32
2018-05-15T11:32:51.382Z,1011.33
2018-05-15T11:33:51.388Z,1011.27
2018-05-15T11:34:51.401Z,1011.34
2018-05-15T11:35:51.436Z,1011.25
2018-05-15T11:36:51.416Z,1011.28
2018-05-15T11:37:51.430Z,1011.33
2018-05-15T11:38:51.436Z,1011.25
2018-05-15T11:39:51.447Z,1011.22
2018-05-15T11:40:51.455Z,1011.23
2018-05-15T11:41:51.510Z,1011.23
2018-05-15T11:42:51.466Z,1011.15
2018-05-15T11:43:51.479Z,1011.13
2018-05-15T11:44:51.495Z,1011.15
2018-05-15T11:45:51.489Z,1011.16
2018-05-15T11:46:51.496Z,1011.15
2018-05-15T11:47:51.847Z,1011.15
2018-05-15T11:48:51.947Z,1011.17
2018-05-15T11:49:52.024Z,1011.11
2018-05-15T11:50:52.384Z,1011.08
2018-05-15T11:51:52.584Z,1011.09
2018-05-15T11:52:52.584Z,1011.06
2018-05-15T11:53:51.634Z,1011.06
2018-05-15T11:54:51.554Z,1011.10
2018-05-15T11:55:51.584Z,1011.05
2018-05-15T11:56:51.570Z,1011.04
2018-05-15T11:57:51.730Z,1011.06
2018-05-15T11:58:51.587Z,1011.00
2018-05-15T11:59:51.641Z,1011.02
2018-05-15T12:00:51.597Z,1011.02
2018-05-15T12:01:51.607Z,1011.04
2018-05-15T12:02:51.613Z,1011.05
2018-05-15T12:03:51.674Z,1011.02
2018-05-15T12:04:51.625Z,1011.07
2018-05-15T12:05:51.627Z,1011.01